createdAt,value
2023-05-23T00:01:43.319Z,22.42
2023-05-23T00:04:17.215Z,18.83
2023-05-23T00:06:47.094Z,13.75
2023-05-23T00:09:15.591Z,18.13
2023-05-23T00:11:45.531Z,15.85
2023-05-23T00:14:16.278Z,19.00
2023-05-23T00:16:46.487Z,14.25
2023-05-23T00:19:16.191Z,20.20
2023-05-23T00:21:45.722Z,14.73
2023-05-23T00:24:14.006Z,12.38
2023-05-23T00:26:42.225Z,13.88
2023-05-23T00:29:15.777Z,16.45
2023-05-23T00:31:46.794Z,13.45
2023-05-23T00:34:17.792Z,17.38
2023-05-23T00:36:47.916Z,15.13
2023-05-23T00:39:20.368Z,18.02
2023-05-23T00:41:52.138Z,18.98
2023-05-23T00:44:21.384Z,20.17
2023-05-23T00:46:54.763Z,17.77
2023-05-23T00:49:23.530Z,16.65
2023-05-23T00:51:52.884Z,13.00
2023-05-23T00:54:25.807Z,17.65
2023-05-23T00:56:56.211Z,13.93
2023-05-23T00:59:26.439Z,14.88
2023-05-23T01:01:58.435Z,18.05
2023-05-23T01:04:28.483Z,16.60
2023-05-23T01:06:57.222Z,18.95
2023-05-23T01:09:28.359Z,23.50
2023-05-23T01:12:05.010Z,15.05
2023-05-23T01:14:48.407Z,19.15
2023-05-23T01:17:22.293Z,17.95
2023-05-23T01:19:58.378Z,16.30
2023-05-23T01:22:39.572Z,17.33
2023-05-23T01:25:18.119Z,14.80
2023-05-23T01:27:56.600Z,14.02
2023-05-23T01:30:27.033Z,14.75
2023-05-23T01:32:57.858Z,17.83
2023-05-23T01:35:27.625Z,17.20
2023-05-23T01:37:56.002Z,16.67
2023-05-23T01:40:26.015Z,14.65
2023-05-23T01:42:58.295Z,16.30
2023-05-23T01:45:28.590Z,17.83
2023-05-23T01:47:58.411Z,18.17
2023-05-23T01:50:27.535Z,17.52
2023-05-23T01:52:57.617Z,23.92
2023-05-23T01:55:27.449Z,16.73
2023-05-23T01:57:58.051Z,14.10
2023-05-23T02:00:26.918Z,14.48
2023-05-23T02:02:55.187Z,15.43
2023-05-23T02:05:24.314Z,18.50
2023-05-23T02:07:52.659Z,18.23
2023-05-23T02:10:21.125Z,14.98
2023-05-23T02:12:49.502Z,17.10
2023-05-23T02:15:19.355Z,15.45
2023-05-23T02:17:48.361Z,15.25
2023-05-23T02:20:19.033Z,17.02
2023-05-23T02:22:49.630Z,14.85
2023-05-23T02:25:17.742Z,15.77
2023-05-23T02:27:46.033Z,14.45
2023-05-23T02:30:15.204Z,16.35
2023-05-23T02:32:44.898Z,15.82
2023-05-23T02:35:13.467Z,14.30
2023-05-23T02:37:42.330Z,15.48
2023-05-23T02:40:10.970Z,17.60
2023-05-23T02:42:39.172Z,15.95
2023-05-23T02:45:09.459Z,18.95
2023-05-23T02:47:37.817Z,14.65
2023-05-23T02:50:08.791Z,16.45
2023-05-23T02:52:37.077Z,16.83
2023-05-23T02:55:06.015Z,17.38
2023-05-23T02:57:40.667Z,17.58
2023-05-23T03:00:11.834Z,22.33
2023-05-23T03:02:41.454Z,14.10
2023-05-23T03:05:11.357Z,16.10
2023-05-23T03:07:39.626Z,17.48
2023-05-23T03:10:09.321Z,15.25
2023-05-23T03:12:38.116Z,17.60
2023-05-23T03:15:07.463Z,16.10
2023-05-23T03:17:38.286Z,18.42
2023-05-23T03:20:09.875Z,16.85
2023-05-23T03:22:43.595Z,19.15
2023-05-23T03:25:11.911Z,18.10
2023-05-23T03:27:40.080Z,17.48
2023-05-23T03:30:09.516Z,17.08
2023-05-23T03:32:38.106Z,17.48
2023-05-23T03:35:07.585Z,15.52
2023-05-23T03:37:35.961Z,13.93
2023-05-23T03:40:07.077Z,16.85
2023-05-23T03:42:36.120Z,15.88
2023-05-23T03:45:04.821Z,16.23
2023-05-23T03:47:34.550Z,17.00
2023-05-23T03:50:03.082Z,15.27
2023-05-23T03:52:31.398Z,14.00
2023-05-23T03:54:59.666Z,18.05
2023-05-23T03:57:29.548Z,15.07
2023-05-23T03:59:57.883Z,17.65
2023-05-23T04:02:27.497Z,13.77
2023-05-23T04:04:57.072Z,15.52
2023-05-23T04:07:26.722Z,21.23
2023-05-23T04:09:55.060Z,15.57
2023-05-23T04:12:25.074Z,16.95
2023-05-23T04:14:55.843Z,16.13
2023-05-23T04:17:24.528Z,12.02
2023-05-23T04:19:54.080Z,12.15
2023-05-23T04:22:22.680Z,13.25
2023-05-23T04:24:51.141Z,15.80
2023-05-23T04:27:22.303Z,15.48
2023-05-23T04:29:52.531Z,20.17
2023-05-23T04:32:23.455Z,15.15
2023-05-23T04:34:52.225Z,14.25
2023-05-23T04:37:26.289Z,14.45
2023-05-23T04:39:56.726Z,13.20
2023-05-23T04:42:58.259Z,14.27
2023-05-23T04:45:44.118Z,16.35
2023-05-23T04:48:34.967Z,16.85
2023-05-23T04:51:07.912Z,12.32
2023-05-23T04:53:41.305Z,11.57
2023-05-23T04:56:12.402Z,15.48
2023-05-23T04:58:42.322Z,17.17
2023-05-23T05:01:12.577Z,10.60
2023-05-23T05:03:42.550Z,11.70
2023-05-23T05:06:10.738Z,11.32
2023-05-23T05:08:40.756Z,9.00
2023-05-23T05:11:10.353Z,19.58
2023-05-23T05:13:38.890Z,10.82
2023-05-23T05:16:07.719Z,10.30
2023-05-23T05:18:37.142Z,9.93
2023-05-23T05:21:06.698Z,9.88
2023-05-23T05:23:34.848Z,11.40
2023-05-23T05:26:03.402Z,12.02
2023-05-23T05:28:31.991Z,9.93
2023-05-23T05:31:05.057Z,15.57
2023-05-23T05:33:37.803Z,11.73
2023-05-23T05:36:17.994Z,10.45
2023-05-23T05:38:47.308Z,12.90
2023-05-23T05:41:15.934Z,11.88
2023-05-23T05:43:49.014Z,12.77
2023-05-23T05:46:17.454Z,12.00
2023-05-23T05:48:46.943Z,11.63
2023-05-23T05:51:17.649Z,10.75
2023-05-23T05:53:46.483Z,15.23
2023-05-23T05:56:15.782Z,13.70
2023-05-23T05:58:44.014Z,10.73
2023-05-23T06:01:15.277Z,8.10
2023-05-23T06:03:44.758Z,8.38
2023-05-23T06:06:13.246Z,18.52
2023-05-23T06:08:43.210Z,9.95
2023-05-23T06:11:16.002Z,9.15
2023-05-23T06:13:44.562Z,9.77
2023-05-23T06:16:13.093Z,12.10
2023-05-23T06:18:42.355Z,8.05
2023-05-23T06:21:11.602Z,9.15
2023-05-23T06:23:40.072Z,18.23
2023-05-23T06:26:10.942Z,24.63
2023-05-23T06:28:40.289Z,14.77
2023-05-23T06:31:10.069Z,6.50
2023-05-23T06:33:38.593Z,10.32
2023-05-23T06:36:06.948Z,12.32
2023-05-23T06:38:35.195Z,9.80
2023-05-23T06:41:04.531Z,8.15
2023-05-23T06:43:34.693Z,10.95
2023-05-23T06:46:25.764Z,8.40
2023-05-23T06:49:06.559Z,12.98
2023-05-23T06:51:42.176Z,29.33
2023-05-23T06:54:10.447Z,6.43
2023-05-23T06:56:39.404Z,10.63
2023-05-23T06:59:08.898Z,9.32
2023-05-23T07:01:37.468Z,9.77
2023-05-23T07:04:06.005Z,7.05
2023-05-23T07:06:36.879Z,11.40
2023-05-23T07:09:06.987Z,7.25
2023-05-23T07:11:36.300Z,10.43
2023-05-23T07:14:06.051Z,7.80
2023-05-23T07:16:39.360Z,7.78
2023-05-23T07:19:09.642Z,12.02
2023-05-23T07:21:44.051Z,8.30
2023-05-23T07:24:14.939Z,5.07
2023-05-23T07:26:43.614Z,6.95
2023-05-23T07:29:11.864Z,8.18
2023-05-23T07:31:41.560Z,6.57
2023-05-23T07:34:10.948Z,5.95
2023-05-23T07:36:50.398Z,5.43
2023-05-23T07:39:22.213Z,5.90
2023-05-23T07:41:51.919Z,6.47
2023-05-23T07:44:23.935Z,7.75
2023-05-23T07:46:55.496Z,7.95
2023-05-23T07:49:24.490Z,12.55
2023-05-23T07:51:54.506Z,6.53
2023-05-23T07:54:22.695Z,6.75
2023-05-23T07:56:55.101Z,8.95
2023-05-23T07:59:23.452Z,7.22
2023-05-23T08:01:54.590Z,7.28
2023-05-23T08:04:24.936Z,10.90
2023-05-23T08:07:04.028Z,5.75
2023-05-23T08:09:43.975Z,5.57
2023-05-23T08:12:15.612Z,8.10
2023-05-23T08:14:51.592Z,6.43
2023-05-23T08:17:44.952Z,9.52
2023-05-23T08:20:14.780Z,6.38
2023-05-23T08:22:43.006Z,5.03
2023-05-23T08:25:12.176Z,10.63
2023-05-23T08:27:42.469Z,8.32
2023-05-23T08:30:30.062Z,7.70
2023-05-23T08:33:04.754Z,4.57
2023-05-23T08:35:36.472Z,6.53
2023-05-23T08:38:09.023Z,6.45
2023-05-23T08:40:42.469Z,9.80
2023-05-23T08:43:14.061Z,12.68
2023-05-23T08:45:42.598Z,5.10
2023-05-23T08:48:15.141Z,11.50
2023-05-23T08:50:49.110Z,8.32
2023-05-23T08:53:24.265Z,8.77
2023-05-23T08:56:02.666Z,8.10
2023-05-23T08:58:41.207Z,8.02
2023-05-23T09:01:10.990Z,4.93
2023-05-23T09:03:42.554Z,6.43
2023-05-23T09:06:32.302Z,16.13
2023-05-23T09:09:01.304Z,6.32
2023-05-23T09:11:29.890Z,7.78
2023-05-23T09:14:00.223Z,23.85
2023-05-23T09:16:34.232Z,16.10
2023-05-23T09:19:13.827Z,10.05
2023-05-23T09:21:47.050Z,76.63
2023-05-23T09:24:35.188Z,95.22
2023-05-23T09:27:06.492Z,11.13
2023-05-23T09:29:35.162Z,40.10
2023-05-23T09:32:12.758Z,15.30
2023-05-23T09:34:43.906Z,16.58
2023-05-23T09:37:19.490Z,36.85
2023-05-23T09:39:48.864Z,85.63
2023-05-23T09:42:22.582Z,60.58
2023-05-23T09:44:50.932Z,43.92
2023-05-23T09:47:19.392Z,20.15
2023-05-23T09:49:51.499Z,30.80
2023-05-23T09:52:21.301Z,9.70
2023-05-23T09:54:49.616Z,22.83
2023-05-23T09:57:18.470Z,13.50
2023-05-23T09:59:54.080Z,9.35
2023-05-23T10:02:54.257Z,5.80
2023-05-23T10:05:34.364Z,6.03
2023-05-23T10:08:04.144Z,11.77
2023-05-23T10:10:34.085Z,6.68
2023-05-23T10:13:06.702Z,22.10
2023-05-23T10:15:40.138Z,35.35
2023-05-23T10:18:14.029Z,21.55
2023-05-23T10:20:48.707Z,12.05
2023-05-23T10:23:17.461Z,18.25
2023-05-23T10:25:46.427Z,5.40
2023-05-23T10:28:15.962Z,7.22
2023-05-23T10:30:45.346Z,6.95
2023-05-23T10:33:16.941Z,5.72
2023-05-23T10:35:55.924Z,7.43
2023-05-23T10:38:36.054Z,8.32
2023-05-23T10:41:11.680Z,6.22
2023-05-23T10:43:48.269Z,6.13
2023-05-23T10:46:16.779Z,5.00
2023-05-23T10:48:46.033Z,7.40
2023-05-23T10:51:17.468Z,6.78
2023-05-23T10:53:47.267Z,7.35
2023-05-23T10:56:22.512Z,5.80
2023-05-23T10:58:55.041Z,6.53
2023-05-23T11:01:23.869Z,7.88
2023-05-23T11:03:55.252Z,7.05
2023-05-23T11:06:34.107Z,8.18
2023-05-23T11:09:08.093Z,5.40
2023-05-23T11:12:00.735Z,9.77
2023-05-23T11:14:54.858Z,5.53
2023-05-23T11:17:33.241Z,6.97
2023-05-23T11:20:06.028Z,11.05
2023-05-23T11:22:36.145Z,5.03
2023-05-23T11:25:08.853Z,5.70
2023-05-23T11:27:38.910Z,5.85
2023-05-23T11:30:10.230Z,6.65
2023-05-23T11:32:38.746Z,3.53
2023-05-23T11:35:08.728Z,6.00
2023-05-23T11:37:40.234Z,4.43
2023-05-23T11:40:29.280Z,7.65
2023-05-23T11:42:58.000Z,5.75
2023-05-23T11:45:26.576Z,7.07
2023-05-23T11:47:55.105Z,4.03
2023-05-23T11:50:24.428Z,9.48
2023-05-23T11:52:56.515Z,7.15
2023-05-23T11:55:25.098Z,3.78
2023-05-23T11:57:53.425Z,9.35
2023-05-23T12:00:22.021Z,6.20
2023-05-23T12:02:50.432Z,9.30
2023-05-23T12:05:19.012Z,7.78
2023-05-23T12:07:49.607Z,5.80
2023-05-23T12:10:21.052Z,4.55
2023-05-23T12:12:49.556Z,6.57
2023-05-23T12:15:17.781Z,5.82
2023-05-23T12:17:47.058Z,5.75
2023-05-23T12:20:15.530Z,4.72
2023-05-23T12:22:44.084Z,6.28
2023-05-23T12:25:12.286Z,11.60
2023-05-23T12:27:44.224Z,5.60
2023-05-23T12:30:15.007Z,4.57
2023-05-23T12:32:44.299Z,4.20
2023-05-23T12:35:14.221Z,6.38
2023-05-23T12:37:43.164Z,8.95
2023-05-23T12:40:14.293Z,6.55
2023-05-23T12:42:52.713Z,7.03
2023-05-23T12:45:21.256Z,7.50
2023-05-23T12:47:51.517Z,9.57
2023-05-23T12:50:22.169Z,4.53
2023-05-23T12:52:50.326Z,8.82
2023-05-23T12:55:18.602Z,6.28
2023-05-23T12:57:48.589Z,8.25
2023-05-23T13:00:17.383Z,6.40
2023-05-23T13:02:45.736Z,4.88
2023-05-23T13:05:13.945Z,4.38
2023-05-23T13:07:42.443Z,5.78
2023-05-23T13:10:11.798Z,4.60
2023-05-23T13:12:39.999Z,6.25
2023-05-23T13:15:10.940Z,8.25
2023-05-23T13:17:39.268Z,7.70
2023-05-23T13:20:09.459Z,6.75
2023-05-23T13:22:37.854Z,5.60
2023-05-23T13:25:07.434Z,6.43
2023-05-23T13:27:36.020Z,10.85
2023-05-23T13:30:04.373Z,4.72
2023-05-23T13:32:34.082Z,7.22
2023-05-23T13:35:02.216Z,11.75
2023-05-23T13:37:30.456Z,12.43
2023-05-23T13:39:58.597Z,8.00
2023-05-23T13:42:27.111Z,8.98
2023-05-23T13:44:55.275Z,7.13
2023-05-23T13:47:23.725Z,6.75
2023-05-23T13:49:53.365Z,6.97
2023-05-23T13:52:21.509Z,6.45
2023-05-23T13:54:49.665Z,6.75
2023-05-23T13:57:17.897Z,6.40
2023-05-23T13:59:46.028Z,5.10
2023-05-23T14:02:14.381Z,9.52
2023-05-23T14:04:42.715Z,7.00
2023-05-23T14:07:12.374Z,9.27
2023-05-23T14:09:40.660Z,13.85
2023-05-23T14:12:09.352Z,5.80
2023-05-23T14:14:37.547Z,8.20
2023-05-23T14:17:05.975Z,8.43
2023-05-23T14:19:34.285Z,5.45
2023-05-23T14:22:02.605Z,12.57
2023-05-23T14:24:32.079Z,6.80
2023-05-23T14:27:00.769Z,6.30
2023-05-23T14:29:29.409Z,8.60
2023-05-23T14:31:59.971Z,5.88
2023-05-23T14:34:28.362Z,5.05
2023-05-23T14:36:56.767Z,6.38
2023-05-23T14:39:25.633Z,5.38
2023-05-23T14:41:55.297Z,5.18
2023-05-23T14:44:23.716Z,7.68
2023-05-23T14:46:51.903Z,5.60
2023-05-23T14:49:20.195Z,13.13
2023-05-23T14:51:51.851Z,7.32
2023-05-23T14:54:20.596Z,8.80
2023-05-23T14:56:51.176Z,5.20
2023-05-23T14:59:22.898Z,8.43
2023-05-23T15:01:51.176Z,5.05
2023-05-23T15:04:19.430Z,5.47
2023-05-23T15:06:48.651Z,6.30
2023-05-23T15:09:18.091Z,7.93
2023-05-23T15:11:47.109Z,7.15
2023-05-23T15:14:15.232Z,7.50
2023-05-23T15:16:46.028Z,5.38
2023-05-23T15:19:14.433Z,6.80
2023-05-23T15:21:50.581Z,6.80
2023-05-23T15:24:20.031Z,5.97
2023-05-23T15:26:49.001Z,7.63
2023-05-23T15:29:18.189Z,8.27
2023-05-23T15:31:47.893Z,5.75
2023-05-23T15:34:16.443Z,8.43
2023-05-23T15:36:44.588Z,8.18
2023-05-23T15:39:13.209Z,7.05
2023-05-23T15:41:41.682Z,4.82
2023-05-23T15:44:12.059Z,8.43
2023-05-23T15:46:42.419Z,6.20
2023-05-23T15:49:24.460Z,6.03
2023-05-23T15:51:55.534Z,7.40
2023-05-23T15:54:23.877Z,8.30
2023-05-23T15:56:52.228Z,6.85
2023-05-23T15:59:21.200Z,6.40
2023-05-23T16:01:49.543Z,11.23
2023-05-23T16:04:19.331Z,5.88
2023-05-23T16:06:47.735Z,11.52
2023-05-23T16:09:15.883Z,7.50
2023-05-23T16:11:44.374Z,8.57
2023-05-23T16:14:12.592Z,10.48
2023-05-23T16:16:40.974Z,5.22
2023-05-23T16:19:09.377Z,8.43
2023-05-23T16:21:39.305Z,8.82
2023-05-23T16:24:07.673Z,5.68
2023-05-23T16:26:35.826Z,9.65
2023-05-23T16:29:04.091Z,6.95
2023-05-23T16:31:32.363Z,11.38
2023-05-23T16:34:00.546Z,8.85
2023-05-23T16:36:29.116Z,8.88
2023-05-23T16:38:58.589Z,8.93
2023-05-23T16:41:26.926Z,6.97
2023-05-23T16:43:55.177Z,7.50
2023-05-23T16:46:23.428Z,8.07
2023-05-23T16:48:51.471Z,7.30
2023-05-23T16:51:19.746Z,8.27
2023-05-23T16:53:47.960Z,8.60
2023-05-23T16:56:17.736Z,11.80
2023-05-23T16:58:46.042Z,5.90
2023-05-23T17:01:16.420Z,9.30
2023-05-23T17:03:44.689Z,7.13
2023-05-23T17:06:13.089Z,10.13
2023-05-23T17:08:41.568Z,10.35
2023-05-23T17:11:09.818Z,14.38
2023-05-23T17:13:39.392Z,7.90
2023-05-23T17:16:07.630Z,8.18
2023-05-23T17:18:36.278Z,9.18
2023-05-23T17:21:05.008Z,7.28
2023-05-23T17:23:33.130Z,9.07
2023-05-23T17:26:01.874Z,8.45
2023-05-23T17:28:30.323Z,11.18
2023-05-23T17:30:59.832Z,11.52
2023-05-23T17:33:27.924Z,10.05
2023-05-23T17:35:56.110Z,8.55
2023-05-23T17:38:24.241Z,8.18
2023-05-23T17:40:52.905Z,11.27
2023-05-23T17:43:21.145Z,6.55
2023-05-23T17:45:49.379Z,8.32
2023-05-23T17:48:18.850Z,12.05
2023-05-23T17:50:47.106Z,11.82
2023-05-23T17:53:16.327Z,7.93
2023-05-23T17:55:45.097Z,13.00
2023-05-23T17:58:13.246Z,9.57
2023-05-23T18:00:42.032Z,8.13
2023-05-23T18:03:10.718Z,7.90
2023-05-23T18:05:40.405Z,9.70
2023-05-23T18:08:08.485Z,10.48
2023-05-23T18:10:37.298Z,14.95
2023-05-23T18:13:05.564Z,11.82
2023-05-23T18:15:33.806Z,15.13
2023-05-23T18:18:02.036Z,11.07
2023-05-23T18:20:30.385Z,11.27
2023-05-23T18:22:59.941Z,15.10
2023-05-23T18:25:28.326Z,15.35
2023-05-23T18:27:57.145Z,14.15
2023-05-23T18:30:26.425Z,13.65
2023-05-23T18:32:54.845Z,10.88
2023-05-23T18:35:23.683Z,12.00
2023-05-23T18:37:52.005Z,12.68
2023-05-23T18:40:23.974Z,17.05
2023-05-23T18:42:52.770Z,13.65
2023-05-23T18:45:20.962Z,21.13
2023-05-23T18:47:50.060Z,12.57
2023-05-23T18:50:18.737Z,11.70
2023-05-23T18:52:47.306Z,11.05
2023-05-23T18:55:16.520Z,13.60
2023-05-23T18:57:46.479Z,10.15
2023-05-23T19:00:16.101Z,12.30
2023-05-23T19:02:45.799Z,17.02
2023-05-23T19:05:14.415Z,11.77
2023-05-23T19:07:43.041Z,15.63
2023-05-23T19:10:12.348Z,10.65
2023-05-23T19:12:40.604Z,18.10
2023-05-23T19:15:11.798Z,13.45
2023-05-23T19:17:40.052Z,19.05
2023-05-23T19:20:09.706Z,12.10
2023-05-23T19:22:50.286Z,10.35
2023-05-23T19:25:19.078Z,16.30
2023-05-23T19:27:47.142Z,21.45
2023-05-23T19:30:16.889Z,15.07
2023-05-23T19:32:46.658Z,15.15
2023-05-23T19:35:17.046Z,18.67
2023-05-23T19:37:45.889Z,15.80
2023-05-23T19:40:14.643Z,14.02
2023-05-23T19:42:42.884Z,12.63
2023-05-23T19:45:12.081Z,13.35
2023-05-23T19:47:41.968Z,12.18
2023-05-23T19:50:11.983Z,12.52
2023-05-23T19:52:41.086Z,18.70
2023-05-23T19:55:10.425Z,20.77
2023-05-23T19:57:38.686Z,12.88
2023-05-23T20:00:09.830Z,11.65
2023-05-23T20:02:38.647Z,11.57
2023-05-23T20:05:09.687Z,16.55
2023-05-23T20:07:38.083Z,12.13
2023-05-23T20:10:07.547Z,20.33
2023-05-23T20:12:36.226Z,12.95
2023-05-23T20:15:04.939Z,15.57
2023-05-23T20:17:33.374Z,13.70
2023-05-23T20:20:02.430Z,14.80
2023-05-23T20:22:33.332Z,16.92
2023-05-23T20:25:05.306Z,18.13
2023-05-23T20:27:33.496Z,18.85
2023-05-23T20:30:01.746Z,16.70
2023-05-23T20:32:29.950Z,10.90
2023-05-23T20:34:59.832Z,19.58
2023-05-23T20:37:29.041Z,12.13
2023-05-23T20:40:00.727Z,16.85
2023-05-23T20:42:31.074Z,17.38
2023-05-23T20:44:59.209Z,16.02
2023-05-23T20:47:27.816Z,14.95
2023-05-23T20:49:56.104Z,22.77
2023-05-23T20:52:24.578Z,17.90
2023-05-23T20:54:54.486Z,18.85
2023-05-23T20:57:23.987Z,15.60
2023-05-23T20:59:52.688Z,14.52
2023-05-23T21:02:21.197Z,13.02
2023-05-23T21:04:49.699Z,14.07
2023-05-23T21:07:18.173Z,15.85
2023-05-23T21:09:47.168Z,21.52
2023-05-23T21:12:15.387Z,18.83
2023-05-23T21:14:44.982Z,11.18
2023-05-23T21:17:13.220Z,18.30
2023-05-23T21:19:41.468Z,17.35
2023-05-23T21:22:09.574Z,18.27
2023-05-23T21:24:37.830Z,17.02
2023-05-23T21:27:07.727Z,17.92
2023-05-23T21:29:36.233Z,14.85
2023-05-23T21:32:06.266Z,24.92
2023-05-23T21:34:34.489Z,12.55
2023-05-23T21:37:02.665Z,21.33
2023-05-23T21:39:42.933Z,20.13
2023-05-23T21:42:15.446Z,17.20
2023-05-23T21:44:43.906Z,17.63
2023-05-23T21:47:13.521Z,16.38
2023-05-23T21:49:41.725Z,18.40
2023-05-23T21:52:10.317Z,17.67
2023-05-23T21:54:38.671Z,17.27
2023-05-23T21:57:07.412Z,15.70
2023-05-23T21:59:35.560Z,17.88
2023-05-23T22:02:04.085Z,13.30
2023-05-23T22:04:33.674Z,16.75
2023-05-23T22:07:02.065Z,18.75
2023-05-23T22:09:30.218Z,15.82
2023-05-23T22:11:58.892Z,15.38
2023-05-23T22:14:27.133Z,17.98
2023-05-23T22:16:56.151Z,11.90
2023-05-23T22:19:26.240Z,15.70
2023-05-23T22:21:56.017Z,22.35
2023-05-23T22:24:25.336Z,15.60
2023-05-23T22:26:53.794Z,16.58
2023-05-23T22:29:21.912Z,13.05
2023-05-23T22:31:50.357Z,17.42
2023-05-23T22:34:18.549Z,14.73
2023-05-23T22:36:47.916Z,16.98
2023-05-23T22:39:17.738Z,15.85
2023-05-23T22:41:46.050Z,14.48
2023-05-23T22:44:14.199Z,15.77
2023-05-23T22:46:43.435Z,16.70
2023-05-23T22:49:11.697Z,17.35
2023-05-23T22:51:40.190Z,13.52
2023-05-23T22:54:08.340Z,13.10
2023-05-23T22:56:38.015Z,14.15
2023-05-23T22:59:06.202Z,13.82
2023-05-23T23:01:34.485Z,15.77
2023-05-23T23:04:02.757Z,15.10
2023-05-23T23:06:31.068Z,12.98
2023-05-23T23:08:59.270Z,15.00
2023-05-23T23:11:27.468Z,16.48
2023-05-23T23:13:57.108Z,16.45
2023-05-23T23:16:26.125Z,14.18
2023-05-23T23:18:54.619Z,17.35
2023-05-23T23:21:22.848Z,14.85
2023-05-23T23:23:51.844Z,13.10
2023-05-23T23:26:20.079Z,16.95
2023-05-23T23:28:48.261Z,14.00
2023-05-23T23:31:18.179Z,14.75
2023-05-23T23:33:46.758Z,15.63
2023-05-23T23:36:15.224Z,14.52
2023-05-23T23:38:43.292Z,13.80
2023-05-23T23:41:11.567Z,14.18
2023-05-23T23:43:39.718Z,13.75
2023-05-23T23:46:07.898Z,16.95
2023-05-23T23:48:37.401Z,12.77
2023-05-23T23:51:06.916Z,17.40
2023-05-23T23:53:34.977Z,13.05
2023-05-23T23:56:03.544Z,17.48
2023-05-23T23:58:31.838Z,20.58
